sensor_id;sensor_type;location;lat;lon;timestamp;pressure;altitude;pressure_sealevel;temperature;humidity
38227;BME280;24026;49.446;8.576;2024-03-22T00:00:41;101239.06;;;16.99;46.08
38227;BME280;24026;49.446;8.576;2024-03-22T00:03:02;101250.88;;;16.98;46.25
38227;BME280;24026;49.446;8.576;2024-03-22T00:05:22;101249.25;;;16.97;46.38
38227;BME280;24026;49.446;8.576;2024-03-22T00:07:43;101248.47;;;16.96;45.99
38227;BME280;24026;49.446;8.576;2024-03-22T00:10:05;101249.53;;;16.95;46.26
38227;BME280;24026;49.446;8.576;2024-03-22T00:12:26;101241.72;;;16.94;46.31
38227;BME280;24026;49.446;8.576;2024-03-22T00:14:46;101232.09;;;16.93;46.56
38227;BME280;24026;49.446;8.576;2024-03-22T00:17:06;101230.47;;;16.92;46.34
38227;BME280;24026;49.446;8.576;2024-03-22T00:19:27;101228.84;;;16.91;46.22
38227;BME280;24026;49.446;8.576;2024-03-22T00:21:47;101233.41;;;16.90;46.34
38227;BME280;24026;49.446;8.576;2024-03-22T00:24:07;101236.34;;;16.89;46.25
38227;BME280;24026;49.446;8.576;2024-03-22T00:26:28;101237.44;;;16.88;45.97
38227;BME280;24026;49.446;8.576;2024-03-22T00:28:49;101232.31;;;16.86;46.29
38227;BME280;24026;49.446;8.576;2024-03-22T00:31:09;101225.06;;;16.87;46.34
38227;BME280;24026;49.446;8.576;2024-03-22T00:33:30;101228.00;;;16.85;46.63
38227;BME280;24026;49.446;8.576;2024-03-22T00:35:50;101211.09;;;16.84;46.41
38227;BME280;24026;49.446;8.576;2024-03-22T00:38:10;101219.41;;;16.83;46.68
38227;BME280;24026;49.446;8.576;2024-03-22T00:40:31;101211.59;;;16.81;46.62
38227;BME280;24026;49.446;8.576;2024-03-22T00:42:51;101208.13;;;16.81;46.73
38227;BME280;24026;49.446;8.576;2024-03-22T00:45:12;101204.59;;;16.80;46.49
38227;BME280;24026;49.446;8.576;2024-03-22T00:47:32;101198.44;;;16.80;46.64
38227;BME280;24026;49.446;8.576;2024-03-22T00:49:52;101196.03;;;16.78;46.40
38227;BME280;24026;49.446;8.576;2024-03-22T00:52:13;101181.00;;;16.77;46.39
38227;BME280;24026;49.446;8.576;2024-03-22T00:54:33;101179.38;;;16.76;46.56
38227;BME280;24026;49.446;8.576;2024-03-22T00:56:54;101186.63;;;16.76;46.53
38227;BME280;24026;49.446;8.576;2024-03-22T00:59:14;101185.00;;;16.75;46.42
38227;BME280;24026;49.446;8.576;2024-03-22T01:01:34;101176.41;;;16.73;46.65
38227;BME280;24026;49.446;8.576;2024-03-22T01:03:55;101179.91;;;16.73;46.82
38227;BME280;24026;49.446;8.576;2024-03-22T01:06:15;101167.53;;;16.72;46.75
38227;BME280;24026;49.446;8.576;2024-03-22T01:08:35;101154.41;;;16.71;46.79
38227;BME280;24026;49.446;8.576;2024-03-22T01:10:56;101172.38;;;16.70;46.78
38227;BME280;24026;49.446;8.576;2024-03-22T01:13:17;101168.34;;;16.67;46.45
38227;BME280;24026;49.446;8.576;2024-03-22T01:15:37;101165.94;;;16.66;46.65
38227;BME280;24026;49.446;8.576;2024-03-22T01:17:57;101163.25;;;16.66;46.47
38227;BME280;24026;49.446;8.576;2024-03-22T01:20:18;101164.31;;;16.65;46.70
38227;BME280;24026;49.446;8.576;2024-03-22T01:22:38;101166.19;;;16.64;46.76
38227;BME280;24026;49.446;8.576;2024-03-22T01:25:00;101171.81;;;16.63;46.65
38227;BME280;24026;49.446;8.576;2024-03-22T01:27:20;101171.03;;;16.62;46.52
38227;BME280;24026;49.446;8.576;2024-03-22T01:29:41;101167.50;;;16.62;46.59
38227;BME280;24026;49.446;8.576;2024-03-22T01:32:01;101163.22;;;16.61;46.73
38227;BME280;24026;49.446;8.576;2024-03-22T01:34:21;101166.97;;;16.60;46.68
38227;BME280;24026;49.446;8.576;2024-03-22T01:36:42;101157.28;;;16.59;46.69
38227;BME280;24026;49.446;8.576;2024-03-22T01:39:02;101152.22;;;16.57;46.68
38227;BME280;24026;49.446;8.576;2024-03-22T01:41:23;101151.38;;;16.57;46.89
38227;BME280;24026;49.446;8.576;2024-03-22T01:43:43;101147.13;;;16.56;46.75
38227;BME280;24026;49.446;8.576;2024-03-22T01:46:04;101142.00;;;16.54;46.61
38227;BME280;24026;49.446;8.576;2024-03-22T01:48:24;101142.25;;;16.53;46.92
38227;BME280;24026;49.446;8.576;2024-03-22T01:50:45;101132.59;;;16.52;46.90
38227;BME280;24026;49.446;8.576;2024-03-22T01:53:05;101136.34;;;16.51;47.16
38227;BME280;24026;49.446;8.576;2024-03-22T01:55:26;101143.59;;;16.50;46.74
38227;BME280;24026;49.446;8.576;2024-03-22T01:57:49;101136.63;;;16.49;46.93
38227;BME280;24026;49.446;8.576;2024-03-22T02:00:12;101134.19;;;16.47;46.83
38227;BME280;24026;49.446;8.576;2024-03-22T02:02:32;101141.41;;;16.47;46.97
38227;BME280;24026;49.446;8.576;2024-03-22T02:04:52;101133.63;;;16.45;47.04
38227;BME280;24026;49.446;8.576;2024-03-22T02:07:13;101140.09;;;16.44;46.81
38227;BME280;24026;49.446;8.576;2024-03-22T02:09:33;101138.47;;;16.43;46.92
38227;BME280;24026;49.446;8.576;2024-03-22T02:11:54;101134.97;;;16.43;47.04
38227;BME280;24026;49.446;8.576;2024-03-22T02:14:14;101127.19;;;16.41;47.05
38227;BME280;24026;49.446;8.576;2024-03-22T02:16:34;101130.13;;;16.40;46.80
38227;BME280;24026;49.446;8.576;2024-03-22T02:18:55;101125.56;;;16.40;46.87
38227;BME280;24026;49.446;8.576;2024-03-22T02:21:15;101123.97;;;16.39;46.90
38227;BME280;24026;49.446;8.576;2024-03-22T02:23:37;101123.44;;;16.37;46.95
38227;BME280;24026;49.446;8.576;2024-03-22T02:25:58;101127.16;;;16.36;46.81
38227;BME280;24026;49.446;8.576;2024-03-22T02:28:18;101124.50;;;16.36;47.00
38227;BME280;24026;49.446;8.576;2024-03-22T02:30:39;101123.69;;;16.36;46.94
38227;BME280;24026;49.446;8.576;2024-03-22T02:32:59;101120.19;;;16.35;46.98
38227;BME280;24026;49.446;8.576;2024-03-22T02:35:19;101123.13;;;16.34;46.82
38227;BME280;24026;49.446;8.576;2024-03-22T02:37:40;101123.13;;;16.34;47.10
38227;BME280;24026;49.446;8.576;2024-03-22T02:40:00;101115.06;;;16.34;47.17
38227;BME280;24026;49.446;8.576;2024-03-22T02:42:20;101113.75;;;16.31;46.99
38227;BME280;24026;49.446;8.576;2024-03-22T02:44:41;101107.59;;;16.30;47.06
38227;BME280;24026;49.446;8.576;2024-03-22T02:47:03;101108.63;;;16.29;46.92
38227;BME280;24026;49.446;8.576;2024-03-22T02:49:25;101101.38;;;16.30;47.09
38227;BME280;24026;49.446;8.576;2024-03-22T02:51:45;101105.16;;;16.29;47.01
38227;BME280;24026;49.446;8.576;2024-03-22T02:54:05;101100.06;;;16.27;46.93
38227;BME280;24026;49.446;8.576;2024-03-22T02:56:27;101099.22;;;16.27;47.08
38227;BME280;24026;49.446;8.576;2024-03-22T02:58:49;101089.59;;;16.26;46.89
38227;BME280;24026;49.446;8.576;2024-03-22T03:01:09;101093.06;;;16.26;46.95
38227;BME280;24026;49.446;8.576;2024-03-22T03:03:30;101088.22;;;16.23;46.93
38227;BME280;24026;49.446;8.576;2024-03-22T03:05:50;101089.06;;;16.24;46.98
38227;BME280;24026;49.446;8.576;2024-03-22T03:08:12;101082.06;;;16.23;46.94
38227;BME280;24026;49.446;8.576;2024-03-22T03:10:32;101083.94;;;16.22;47.29
38227;BME280;24026;49.446;8.576;2024-03-22T03:12:54;101075.34;;;16.20;47.12
38227;BME280;24026;49.446;8.576;2024-03-22T03:15:16;101078.00;;;16.20;47.05
38227;BME280;24026;49.446;8.576;2024-03-22T03:17:36;101073.75;;;16.19;47.07
38227;BME280;24026;49.446;8.576;2024-03-22T03:19:56;101075.59;;;16.19;47.06
38227;BME280;24026;49.446;8.576;2024-03-22T03:22:17;101068.63;;;16.18;46.99
38227;BME280;24026;49.446;8.576;2024-03-22T03:24:37;101079.34;;;16.18;47.03
38227;BME280;24026;49.446;8.576;2024-03-22T03:26:57;101075.06;;;16.17;47.28
38227;BME280;24026;49.446;8.576;2024-03-22T03:29:18;101078.81;;;16.16;47.01
38227;BME280;24026;49.446;8.576;2024-03-22T03:31:38;101072.63;;;16.15;47.04
38227;BME280;24026;49.446;8.576;2024-03-22T03:33:59;101082.56;;;16.15;47.18
38227;BME280;24026;49.446;8.576;2024-03-22T03:36:19;101087.94;;;16.15;46.97
38227;BME280;24026;49.446;8.576;2024-03-22T03:38:39;101074.50;;;16.15;47.22
38227;BME280;24026;49.446;8.576;2024-03-22T03:41:01;101072.09;;;16.13;47.25
38227;BME280;24026;49.446;8.576;2024-03-22T03:43:22;101075.03;;;16.11;47.24
38227;BME280;24026;49.446;8.576;2024-03-22T03:45:42;101071.56;;;16.11;47.24
38227;BME280;24026;49.446;8.576;2024-03-22T03:48:03;101076.91;;;16.11;47.00
38227;BME280;24026;49.446;8.576;2024-03-22T03:50:23;101072.63;;;16.10;47.26
38227;BME280;24026;49.446;8.576;2024-03-22T03:52:44;101070.75;;;16.10;47.26
38227;BME280;24026;49.446;8.576;2024-03-22T03:55:04;101064.56;;;16.10;47.04
38227;BME280;24026;49.446;8.576;2024-03-22T03:57:24;101067.50;;;16.08;47.21
38227;BME280;24026;49.446;8.576;2024-03-22T03:59:45;101063.22;;;16.07;47.09
38227;BME280;24026;49.446;8.576;2024-03-22T04:02:05;101059.97;;;16.05;47.21
38227;BME280;24026;49.446;8.576;2024-03-22T04:04:26;101061.88;;;16.05;47.28
38227;BME280;24026;49.446;8.576;2024-03-22T04:06:46;101059.19;;;16.05;47.36
38227;BME280;24026;49.446;8.576;2024-03-22T04:09:07;101055.16;;;16.02;47.22
38227;BME280;24026;49.446;8.576;2024-03-22T04:11:27;101055.16;;;16.02;47.18
38227;BME280;24026;49.446;8.576;2024-03-22T04:13:47;101054.34;;;16.02;47.21
38227;BME280;24026;49.446;8.576;2024-03-22T04:16:08;101054.59;;;16.00;47.14
38227;BME280;24026;49.446;8.576;2024-03-22T04:18:28;101057.28;;;16.00;47.12
38227;BME280;24026;49.446;8.576;2024-03-22T04:20:56;101053.81;;;16.00;47.27
38227;BME280;24026;49.446;8.576;2024-03-22T04:23:16;101053.00;;;15.99;47.44
38227;BME280;24026;49.446;8.576;2024-03-22T04:25:37;101054.06;;;15.98;47.04
38227;BME280;24026;49.446;8.576;2024-03-22T04:27:57;101058.63;;;15.98;47.24
38227;BME280;24026;49.446;8.576;2024-03-22T04:30:17;101061.31;;;15.98;47.22
38227;BME280;24026;49.446;8.576;2024-03-22T04:32:38;101056.22;;;15.96;47.19
38227;BME280;24026;49.446;8.576;2024-03-22T04:34:58;101049.22;;;15.95;47.23
38227;BME280;24026;49.446;8.576;2024-03-22T04:37:19;101053.78;;;15.95;47.36
38227;BME280;24026;49.446;8.576;2024-03-22T04:39:40;101045.75;;;15.95;47.28
38227;BME280;24026;49.446;8.576;2024-03-22T04:42:00;101041.44;;;15.93;47.12
38227;BME280;24026;49.446;8.576;2024-03-22T04:44:21;101044.13;;;15.93;47.35
38227;BME280;24026;49.446;8.576;2024-03-22T04:46:41;101040.91;;;15.91;47.33
38227;BME280;24026;49.446;8.576;2024-03-22T04:49:02;101040.91;;;15.91;47.38
38227;BME280;24026;49.446;8.576;2024-03-22T04:51:22;101040.38;;;15.89;47.30
38227;BME280;24026;49.446;8.576;2024-03-22T04:53:42;101043.03;;;15.89;47.31
38227;BME280;24026;49.446;8.576;2024-03-22T04:56:04;101044.94;;;15.89;47.16
38227;BME280;24026;49.446;8.576;2024-03-22T04:58:25;101037.94;;;15.88;47.15
38227;BME280;24026;49.446;8.576;2024-03-22T05:00:46;101041.41;;;15.88;47.24
38227;BME280;24026;49.446;8.576;2024-03-22T05:03:07;101038.75;;;15.88;47.11
38227;BME280;24026;49.446;8.576;2024-03-22T05:05:27;101030.94;;;15.87;47.18
38227;BME280;24026;49.446;8.576;2024-03-22T05:07:48;101035.50;;;15.86;47.14
38227;BME280;24026;49.446;8.576;2024-03-22T05:10:08;101033.09;;;15.85;47.20
38227;BME280;24026;49.446;8.576;2024-03-22T05:12:29;101035.78;;;15.85;47.32
38227;BME280;24026;49.446;8.576;2024-03-22T05:14:50;101031.50;;;15.84;47.10
38227;BME280;24026;49.446;8.576;2024-03-22T05:17:10;101028.81;;;15.84;46.98
38227;BME280;24026;49.446;8.576;2024-03-22T05:19:30;101024.50;;;15.83;47.25
38227;BME280;24026;49.446;8.576;2024-03-22T05:21:51;101028.25;;;15.82;47.02
38227;BME280;24026;49.446;8.576;2024-03-22T05:24:11;101029.06;;;15.82;47.09
38227;BME280;24026;49.446;8.576;2024-03-22T05:26:32;101027.44;;;15.81;47.10
38227;BME280;24026;49.446;8.576;2024-03-22T05:28:56;101031.19;;;15.80;47.04
38227;BME280;24026;49.446;8.576;2024-03-22T05:31:16;101028.50;;;15.80;47.04
38227;BME280;24026;49.446;8.576;2024-03-22T05:33:37;101030.38;;;15.80;47.15
38227;BME280;24026;49.446;8.576;2024-03-22T05:35:57;101028.50;;;15.80;47.13
38227;BME280;24026;49.446;8.576;2024-03-22T05:38:18;101028.81;;;15.79;47.07
38227;BME280;24026;49.446;8.576;2024-03-22T05:40:38;101028.81;;;15.79;47.12
38227;BME280;24026;49.446;8.576;2024-03-22T05:42:58;101029.84;;;15.78;47.22
38227;BME280;24026;49.446;8.576;2024-03-22T05:45:19;101028.22;;;15.77;47.06
38227;BME280;24026;49.446;8.576;2024-03-22T05:47:39;101028.22;;;15.77;47.31
38227;BME280;24026;49.446;8.576;2024-03-22T05:50:00;101029.31;;;15.76;46.94
38227;BME280;24026;49.446;8.576;2024-03-22T05:52:21;101022.31;;;15.74;47.24
38227;BME280;24026;49.446;8.576;2024-03-22T05:54:41;101026.88;;;15.74;46.94
38227;BME280;24026;49.446;8.576;2024-03-22T05:57:02;101026.88;;;15.74;47.18
38227;BME280;24026;49.446;8.576;2024-03-22T05:59:22;101019.06;;;15.72;46.93
38227;BME280;24026;49.446;8.576;2024-03-22T06:01:43;101027.13;;;15.72;47.07
38227;BME280;24026;49.446;8.576;2024-03-22T06:04:05;101028.72;;;15.73;47.04
38227;BME280;24026;49.446;8.576;2024-03-22T06:06:26;101028.72;;;15.73;47.11
38227;BME280;24026;49.446;8.576;2024-03-22T06:08:46;101029.81;;;15.72;47.11
38227;BME280;24026;49.446;8.576;2024-03-22T06:11:12;101027.13;;;15.72;47.10
38227;BME280;24026;49.446;8.576;2024-03-22T06:13:34;101023.09;;;15.75;47.01
38227;BME280;24026;49.446;8.576;2024-03-22T06:15:56;101023.94;;;15.76;47.01
38227;BME280;24026;49.446;8.576;2024-03-22T06:18:16;101021.81;;;15.78;47.03
38227;BME280;24026;49.446;8.576;2024-03-22T06:20:38;101016.44;;;15.78;46.97
38227;BME280;24026;49.446;8.576;2024-03-22T06:23:00;101014.31;;;15.80;46.85
38227;BME280;24026;49.446;8.576;2024-03-22T06:25:24;101013.78;;;15.83;47.10
38227;BME280;24026;49.446;8.576;2024-03-22T06:27:45;101004.69;;;15.84;47.67
38227;BME280;24026;49.446;8.576;2024-03-22T06:30:07;101001.47;;;15.87;47.47
38227;BME280;24026;49.446;8.576;2024-03-22T06:32:30;100999.09;;;15.90;47.52
38227;BME280;24026;49.446;8.576;2024-03-22T06:34:51;101000.44;;;15.93;47.34
38227;BME280;24026;49.446;8.576;2024-03-22T06:37:13;100999.91;;;15.96;47.23
38227;BME280;24026;49.446;8.576;2024-03-22T06:39:33;100996.97;;;15.98;47.21
38227;BME280;24026;49.446;8.576;2024-03-22T06:41:57;100995.38;;;16.02;47.07
38227;BME280;24026;49.446;8.576;2024-03-22T06:44:18;100992.97;;;16.05;46.92
38227;BME280;24026;49.446;8.576;2024-03-22T06:46:40;100992.69;;;16.07;46.79
38227;BME280;24026;49.446;8.576;2024-03-22T06:49:00;100990.59;;;16.09;46.63
38227;BME280;24026;49.446;8.576;2024-03-22T06:51:20;100981.19;;;16.11;46.60
38227;BME280;24026;49.446;8.576;2024-03-22T06:53:41;100980.94;;;16.13;46.77
38227;BME280;24026;49.446;8.576;2024-03-22T06:56:01;100988.44;;;16.16;46.57
38227;BME280;24026;49.446;8.576;2024-03-22T06:58:22;100995.13;;;16.19;46.77
38227;BME280;24026;49.446;8.576;2024-03-22T07:00:44;100990.34;;;16.21;46.40
38227;BME280;24026;49.446;8.576;2024-03-22T07:03:05;100991.66;;;16.23;46.52
38227;BME280;24026;49.446;8.576;2024-03-22T07:05:25;100980.41;;;16.26;46.58
38227;BME280;24026;49.446;8.576;2024-03-22T07:07:45;100981.78;;;16.29;46.50
38227;BME280;24026;49.446;8.576;2024-03-22T07:10:06;100970.50;;;16.32;46.48
38227;BME280;24026;49.446;8.576;2024-03-22T07:12:28;100969.44;;;16.33;46.49
38227;BME280;24026;49.446;8.576;2024-03-22T07:14:50;100971.84;;;16.35;46.32
38227;BME280;24026;49.446;8.576;2024-03-22T07:17:10;100969.44;;;16.38;46.51
38227;BME280;24026;49.446;8.576;2024-03-22T07:19:31;100961.13;;;16.40;46.35
38227;BME280;24026;49.446;8.576;2024-03-22T07:21:54;100962.50;;;16.42;46.46
38227;BME280;24026;49.446;8.576;2024-03-22T07:24:14;100964.91;;;16.44;46.48
38227;BME280;24026;49.446;8.576;2024-03-22T07:26:35;100961.66;;;16.47;46.31
38227;BME280;24026;49.446;8.576;2024-03-22T07:28:56;100968.38;;;16.49;46.44
38227;BME280;24026;49.446;8.576;2024-03-22T07:31:18;100959.81;;;16.53;46.15
38227;BME280;24026;49.446;8.576;2024-03-22T07:33:39;100963.81;;;16.55;46.32
38227;BME280;24026;49.446;8.576;2024-03-22T07:36:05;100962.22;;;16.59;46.06
38227;BME280;24026;49.446;8.576;2024-03-22T07:38:26;100961.69;;;16.62;46.38
38227;BME280;24026;49.446;8.576;2024-03-22T07:40:48;100955.78;;;16.65;46.07
38227;BME280;24026;49.446;8.576;2024-03-22T07:43:08;100955.25;;;16.68;46.20
38227;BME280;24026;49.446;8.576;2024-03-22T07:45:33;100952.81;;;16.72;46.32
38227;BME280;24026;49.446;8.576;2024-03-22T07:47:56;100956.06;;;16.74;46.15
38227;BME280;24026;49.446;8.576;2024-03-22T07:50:19;100957.38;;;16.77;46.06
38227;BME280;24026;49.446;8.576;2024-03-22T07:52:40;100954.44;;;16.78;46.26
38227;BME280;24026;49.446;8.576;2024-03-22T07:55:01;100954.97;;;16.80;45.96
38227;BME280;24026;49.446;8.576;2024-03-22T07:57:24;100944.78;;;16.82;46.19
38227;BME280;24026;49.446;8.576;2024-03-22T07:59:44;100949.88;;;16.84;46.07
38227;BME280;24026;49.446;8.576;2024-03-22T08:02:07;100950.44;;;16.86;45.98
38227;BME280;24026;49.446;8.576;2024-03-22T08:04:28;100951.25;;;16.87;46.07
38227;BME280;24026;49.446;8.576;2024-03-22T08:06:55;100948.28;;;16.88;46.14
38227;BME280;24026;49.446;8.576;2024-03-22T08:09:16;100944.53;;;16.89;46.07
38227;BME280;24026;49.446;8.576;2024-03-22T08:11:38;100944.28;;;16.91;45.83
38227;BME280;24026;49.446;8.576;2024-03-22T08:13:58;100941.28;;;16.92;45.97
38227;BME280;24026;49.446;8.576;2024-03-22T08:16:23;100941.03;;;16.94;46.17
38227;BME280;24026;49.446;8.576;2024-03-22T08:18:44;100938.34;;;16.94;46.00
38227;BME280;24026;49.446;8.576;2024-03-22T08:21:05;100944.28;;;16.96;45.99
38227;BME280;24026;49.446;8.576;2024-03-22T08:23:26;100934.06;;;16.98;45.83
38227;BME280;24026;49.446;8.576;2024-03-22T08:25:47;100938.06;;;17.00;45.82
38227;BME280;24026;49.446;8.576;2024-03-22T08:28:08;100933.25;;;17.02;46.01
38227;BME280;24026;49.446;8.576;2024-03-22T08:30:31;100931.09;;;17.04;46.16
38227;BME280;24026;49.446;8.576;2024-03-22T08:32:53;100920.88;;;17.07;45.98
38227;BME280;24026;49.446;8.576;2024-03-22T08:35:15;100923.28;;;17.08;46.14
38227;BME280;24026;49.446;8.576;2024-03-22T08:37:35;100922.22;;;17.09;45.97
38227;BME280;24026;49.446;8.576;2024-03-22T08:39:59;100907.72;;;17.10;46.22
38227;BME280;24026;49.446;8.576;2024-03-22T08:42:21;100907.44;;;17.12;46.23
38227;BME280;24026;49.446;8.576;2024-03-22T08:44:41;100907.16;;;17.13;46.22
38227;BME280;24026;49.446;8.576;2024-03-22T08:47:05;100915.75;;;17.15;45.88
38227;BME280;24026;49.446;8.576;2024-03-22T08:49:26;100912.78;;;17.17;46.16
38227;BME280;24026;49.446;8.576;2024-03-22T08:54:08;100908.78;;;17.19;46.23
38227;BME280;24026;49.446;8.576;2024-03-22T08:56:30;100902.31;;;17.20;46.19
38227;BME280;24026;49.446;8.576;2024-03-22T08:58:51;100895.88;;;17.21;46.08
38227;BME280;24026;49.446;8.576;2024-03-22T09:01:12;100894.81;;;17.22;45.96
38227;BME280;24026;49.446;8.576;2024-03-22T09:03:36;100891.03;;;17.23;46.01
38227;BME280;24026;49.446;8.576;2024-03-22T09:05:56;100891.84;;;17.24;45.96
38227;BME280;24026;49.446;8.576;2024-03-22T09:08:18;100887.25;;;17.25;46.02
38227;BME280;24026;49.446;8.576;2024-03-22T09:10:40;100880.78;;;17.26;46.02
38227;BME280;24026;49.446;8.576;2024-03-22T09:13:01;100877.03;;;17.27;46.21
38227;BME280;24026;49.446;8.576;2024-03-22T09:15:23;100879.47;;;17.28;46.52
38227;BME280;24026;49.446;8.576;2024-03-22T09:17:44;100876.78;;;17.28;46.40
38227;BME280;24026;49.446;8.576;2024-03-22T09:20:07;100868.44;;;17.30;46.25
38227;BME280;24026;49.446;8.576;2024-03-22T09:22:27;100867.66;;;17.29;46.61
38227;BME280;24026;49.446;8.576;2024-03-22T09:24:49;100863.06;;;17.30;46.26
38227;BME280;24026;49.446;8.576;2024-03-22T09:27:10;100867.38;;;17.31;46.36
38227;BME280;24026;49.446;8.576;2024-03-22T09:29:30;100862.00;;;17.31;46.37
38227;BME280;24026;49.446;8.576;2024-03-22T09:31:53;100871.38;;;17.33;46.43
38227;BME280;24026;49.446;8.576;2024-03-22T09:34:15;100863.03;;;17.35;46.70
38227;BME280;24026;49.446;8.576;2024-03-22T09:36:37;100860.09;;;17.36;46.96
38227;BME280;24026;49.446;8.576;2024-03-22T09:38:57;100857.13;;;17.38;46.80
38227;BME280;24026;49.446;8.576;2024-03-22T09:41:24;100857.66;;;17.40;47.02
38227;BME280;24026;49.446;8.576;2024-03-22T09:43:47;100847.41;;;17.42;46.87
38227;BME280;24026;49.446;8.576;2024-03-22T09:46:11;100847.16;;;17.44;46.68
38227;BME280;24026;49.446;8.576;2024-03-22T09:48:35;100842.28;;;17.46;46.66
38227;BME280;24026;49.446;8.576;2024-03-22T09:50:58;100850.09;;;17.47;46.57
38227;BME280;24026;49.446;8.576;2024-03-22T09:53:19;100840.69;;;17.50;46.89
38227;BME280;24026;49.446;8.576;2024-03-22T09:55:40;100840.69;;;17.50;46.49
38227;BME280;24026;49.446;8.576;2024-03-22T09:58:04;100837.72;;;17.51;46.58
38227;BME280;24026;49.446;8.576;2024-03-22T10:00:25;100835.03;;;17.51;46.77
38227;BME280;24026;49.446;8.576;2024-03-22T10:05:07;100833.66;;;17.54;46.64
38227;BME280;24026;49.446;8.576;2024-03-22T10:07:28;100824.53;;;17.55;46.31
38227;BME280;24026;49.446;8.576;2024-03-22T10:09:51;100821.84;;;17.55;46.43
38227;BME280;24026;49.446;8.576;2024-03-22T10:12:16;100816.97;;;17.57;46.58
38227;BME280;24026;49.446;8.576;2024-03-22T10:14:37;100807.84;;;17.58;46.35
38227;BME280;24026;49.446;8.576;2024-03-22T10:17:00;100811.84;;;17.60;46.44
38227;BME280;24026;49.446;8.576;2024-03-22T10:19:24;100814.81;;;17.64;46.25
38227;BME280;24026;49.446;8.576;2024-03-22T10:22:04;100808.84;;;17.67;46.25
38227;BME280;24026;49.446;8.576;2024-03-22T10:24:27;100802.94;;;17.70;46.13
38227;BME280;24026;49.446;8.576;2024-03-22T10:26:50;100805.84;;;17.74;46.14
38227;BME280;24026;49.446;8.576;2024-03-22T10:29:12;100798.06;;;17.77;46.20
38227;BME280;24026;49.446;8.576;2024-03-22T10:31:34;100797.75;;;17.79;46.04
38227;BME280;24026;49.446;8.576;2024-03-22T10:33:55;100793.72;;;17.82;45.98
38227;BME280;24026;49.446;8.576;2024-03-22T10:36:17;100790.75;;;17.83;46.30
38227;BME280;24026;49.446;8.576;2024-03-22T10:38:45;100786.44;;;17.87;46.37
38227;BME280;24026;49.446;8.576;2024-03-22T10:41:05;100774.59;;;17.88;46.08
38227;BME280;24026;49.446;8.576;2024-03-22T10:43:26;100765.47;;;17.89;46.13
38227;BME280;24026;49.446;8.576;2024-03-22T10:45:48;100772.16;;;17.92;46.13
38227;BME280;24026;49.446;8.576;2024-03-22T10:48:12;100771.88;;;17.93;46.19
38227;BME280;24026;49.446;8.576;2024-03-22T10:50:36;100763.81;;;17.93;45.92
38227;BME280;24026;49.446;8.576;2024-03-22T10:53:02;100761.63;;;17.95;46.30
38227;BME280;24026;49.446;8.576;2024-03-22T10:55:41;100755.47;;;17.95;45.87
38227;BME280;24026;49.446;8.576;2024-03-22T10:58:03;100755.22;;;17.91;45.87
38227;BME280;24026;49.446;8.576;2024-03-22T11:00:34;100750.38;;;17.93;45.99
38227;BME280;24026;49.446;8.576;2024-03-22T11:02:58;100749.00;;;17.96;46.10
38227;BME280;24026;49.446;8.576;2024-03-22T11:05:19;100740.13;;;17.95;46.15
38227;BME280;24026;49.446;8.576;2024-03-22T11:07:39;100740.66;;;17.98;45.74
38227;BME280;24026;49.446;8.576;2024-03-22T11:10:04;100734.19;;;17.99;45.95
38227;BME280;24026;49.446;8.576;2024-03-22T11:12:28;100729.59;;;17.99;46.03
38227;BME280;24026;49.446;8.576;2024-03-22T11:14:54;100722.34;;;18.00;45.86
38227;BME280;24026;49.446;8.576;2024-03-22T11:17:15;100725.03;;;18.00;45.95
38227;BME280;24026;49.446;8.576;2024-03-22T11:19:36;100714.81;;;18.02;45.75
38227;BME280;24026;49.446;8.576;2024-03-22T11:21:58;100711.03;;;18.03;46.10
38227;BME280;24026;49.446;8.576;2024-03-22T11:24:19;100702.69;;;18.04;45.80
38227;BME280;24026;49.446;8.576;2024-03-22T11:26:39;100707.25;;;18.04;45.66
38227;BME280;24026;49.446;8.576;2024-03-22T11:29:00;100698.09;;;18.05;45.62
38227;BME280;24026;49.446;8.576;2024-03-22T11:31:22;100693.50;;;18.05;45.85
38227;BME280;24026;49.446;8.576;2024-03-22T11:33:49;100693.22;;;18.07;46.00
38227;BME280;24026;49.446;8.576;2024-03-22T11:36:09;100680.88;;;18.06;45.70
38227;BME280;24026;49.446;8.576;2024-03-22T11:38:31;100675.19;;;18.07;46.08
38227;BME280;24026;49.446;8.576;2024-03-22T11:40:51;100678.72;;;18.08;45.68
38227;BME280;24026;49.446;8.576;2024-03-22T11:43:15;100672.22;;;18.09;45.59
38227;BME280;24026;49.446;8.576;2024-03-22T11:45:37;100671.16;;;18.10;45.75
38227;BME280;24026;49.446;8.576;2024-03-22T11:48:02;100662.00;;;18.11;45.65
38227;BME280;24026;49.446;8.576;2024-03-22T11:50:24;100663.59;;;18.12;45.94
38227;BME280;24026;49.446;8.576;2024-03-22T11:52:46;100657.16;;;18.13;45.93
38227;BME280;24026;49.446;8.576;2024-03-22T11:55:11;100656.03;;;18.14;45.93
38227;BME280;24026;49.446;8.576;2024-03-22T11:57:33;100650.38;;;18.15;45.91
38227;BME280;24026;49.446;8.576;2024-03-22T11:59:59;100646.59;;;18.17;45.44
38227;BME280;24026;49.446;8.576;2024-03-22T12:02:20;100642.84;;;18.18;45.52
38227;BME280;24026;49.446;8.576;2024-03-22T12:04:46;100639.84;;;18.19;45.45
38227;BME280;24026;49.446;8.576;2024-03-22T12:07:10;100632.94;;;18.13;45.78
38227;BME280;24026;49.446;8.576;2024-03-22T12:09:31;100631.25;;;18.17;45.57
38227;BME280;24026;49.446;8.576;2024-03-22T12:11:55;100629.91;;;18.20;45.54
38227;BME280;24026;49.446;8.576;2024-03-22T12:14:17;100623.66;;;18.24;45.48
38227;BME280;24026;49.446;8.576;2024-03-22T12:16:37;100627.66;;;18.27;45.39
38227;BME280;24026;49.446;8.576;2024-03-22T12:18:58;100619.31;;;18.28;45.19
38227;BME280;24026;49.446;8.576;2024-03-22T12:21:19;100609.06;;;18.30;45.45
38227;BME280;24026;49.446;8.576;2024-03-22T12:23:39;100605.00;;;18.33;45.33